sensor_id;sensor_type;location;lat;lon;timestamp;pressure;altitude;pressure_sealevel;temperature
8227;BMP180;4154;48.810;9.012;2023-08-20T00:00:29;97525.00;;;22.50
8227;BMP180;4154;48.810;9.012;2023-08-20T00:03:03;97523.00;;;22.50
8227;BMP180;4154;48.810;9.012;2023-08-20T00:05:31;97528.00;;;22.50
8227;BMP180;4154;48.810;9.012;2023-08-20T00:07:57;97528.00;;;22.50
8227;BMP180;4154;48.810;9.012;2023-08-20T00:10:23;97534.00;;;22.40
8227;BMP180;4154;48.810;9.012;2023-08-20T00:12:49;97528.00;;;22.40
8227;BMP180;4154;48.810;9.012;2023-08-20T00:15:15;97530.00;;;22.40
8227;BMP180;4154;48.810;9.012;2023-08-20T00:17:41;97537.00;;;22.40
8227;BMP180;4154;48.810;9.012;2023-08-20T00:20:09;97532.00;;;22.40
8227;BMP180;4154;48.810;9.012;2023-08-20T00:22:42;97528.00;;;22.40
8227;BMP180;4154;48.810;9.012;2023-08-20T00:25:12;97530.00;;;22.40
8227;BMP180;4154;48.810;9.012;2023-08-20T00:27:40;97533.00;;;22.30
8227;BMP180;4154;48.810;9.012;2023-08-20T00:30:07;97518.00;;;22.30
8227;BMP180;4154;48.810;9.012;2023-08-20T00:32:32;97521.00;;;22.30
8227;BMP180;4154;48.810;9.012;2023-08-20T00:34:58;97521.00;;;22.30
8227;BMP180;4154;48.810;9.012;2023-08-20T00:37:24;97532.00;;;22.20
8227;BMP180;4154;48.810;9.012;2023-08-20T00:39:50;97530.00;;;22.20
8227;BMP180;4154;48.810;9.012;2023-08-20T00:42:16;97530.00;;;22.10
8227;BMP180;4154;48.810;9.012;2023-08-20T00:44:42;97532.00;;;22.10
8227;BMP180;4154;48.810;9.012;2023-08-20T00:47:10;97532.00;;;22.10
8227;BMP180;4154;48.810;9.012;2023-08-20T00:49:37;97532.00;;;22.10
8227;BMP180;4154;48.810;9.012;2023-08-20T00:52:04;97532.00;;;22.10
8227;BMP180;4154;48.810;9.012;2023-08-20T00:54:32;97533.00;;;22.10
8227;BMP180;4154;48.810;9.012;2023-08-20T00:56:59;97540.00;;;22.10
8227;BMP180;4154;48.810;9.012;2023-08-20T00:59:29;97528.00;;;22.10
8227;BMP180;4154;48.810;9.012;2023-08-20T01:01:55;97529.00;;;22.00
8227;BMP180;4154;48.810;9.012;2023-08-20T01:04:21;97533.00;;;22.00
8227;BMP180;4154;48.810;9.012;2023-08-20T01:07:15;97536.00;;;22.00
8227;BMP180;4154;48.810;9.012;2023-08-20T01:12:53;97540.00;;;22.00
8227;BMP180;4154;48.810;9.012;2023-08-20T01:15:19;97534.00;;;22.00
8227;BMP180;4154;48.810;9.012;2023-08-20T01:17:45;97538.00;;;21.90
8227;BMP180;4154;48.810;9.012;2023-08-20T01:20:13;97537.00;;;21.90
8227;BMP180;4154;48.810;9.012;2023-08-20T01:23:15;97540.00;;;21.90
8227;BMP180;4154;48.810;9.012;2023-08-20T01:26:07;97528.00;;;21.90
8227;BMP180;4154;48.810;9.012;2023-08-20T01:28:35;97532.00;;;21.90
8227;BMP180;4154;48.810;9.012;2023-08-20T01:31:03;97535.00;;;21.80
8227;BMP180;4154;48.810;9.012;2023-08-20T01:33:29;97544.00;;;21.80
8227;BMP180;4154;48.810;9.012;2023-08-20T01:35:56;97537.00;;;21.80
8227;BMP180;4154;48.810;9.012;2023-08-20T01:38:22;97540.00;;;21.80
8227;BMP180;4154;48.810;9.012;2023-08-20T01:40:49;97539.00;;;21.80
8227;BMP180;4154;48.810;9.012;2023-08-20T01:43:15;97543.00;;;21.80
8227;BMP180;4154;48.810;9.012;2023-08-20T01:45:41;97539.00;;;21.80
8227;BMP180;4154;48.810;9.012;2023-08-20T01:48:07;97532.00;;;21.70
8227;BMP180;4154;48.810;9.012;2023-08-20T01:50:35;97540.00;;;21.70
8227;BMP180;4154;48.810;9.012;2023-08-20T01:53:01;97549.00;;;21.70
8227;BMP180;4154;48.810;9.012;2023-08-20T01:55:28;97545.00;;;21.70
8227;BMP180;4154;48.810;9.012;2023-08-20T01:57:54;97543.00;;;21.60
8227;BMP180;4154;48.810;9.012;2023-08-20T02:00:19;97545.00;;;21.60
8227;BMP180;4154;48.810;9.012;2023-08-20T02:02:45;97544.00;;;21.60
8227;BMP180;4154;48.810;9.012;2023-08-20T02:05:11;97547.00;;;21.60
8227;BMP180;4154;48.810;9.012;2023-08-20T02:07:38;97544.00;;;21.60
8227;BMP180;4154;48.810;9.012;2023-08-20T02:10:04;97549.00;;;21.50
8227;BMP180;4154;48.810;9.012;2023-08-20T02:12:30;97548.00;;;21.50
8227;BMP180;4154;48.810;9.012;2023-08-20T02:14:57;97548.00;;;21.50
8227;BMP180;4154;48.810;9.012;2023-08-20T02:17:23;97544.00;;;21.50
8227;BMP180;4154;48.810;9.012;2023-08-20T02:19:49;97566.00;;;21.50
8227;BMP180;4154;48.810;9.012;2023-08-20T02:22:15;97550.00;;;21.50
8227;BMP180;4154;48.810;9.012;2023-08-20T02:24:41;97558.00;;;21.50
8227;BMP180;4154;48.810;9.012;2023-08-20T02:27:06;97543.00;;;21.50
8227;BMP180;4154;48.810;9.012;2023-08-20T02:29:32;97549.00;;;21.40
8227;BMP180;4154;48.810;9.012;2023-08-20T02:31:58;97539.00;;;21.40
8227;BMP180;4154;48.810;9.012;2023-08-20T02:34:24;97549.00;;;21.40
8227;BMP180;4154;48.810;9.012;2023-08-20T02:36:50;97548.00;;;21.40
8227;BMP180;4154;48.810;9.012;2023-08-20T02:39:16;97546.00;;;21.40
8227;BMP180;4154;48.810;9.012;2023-08-20T02:41:42;97549.00;;;21.30
8227;BMP180;4154;48.810;9.012;2023-08-20T02:44:08;97541.00;;;21.30
8227;BMP180;4154;48.810;9.012;2023-08-20T02:46:34;97544.00;;;21.30
8227;BMP180;4154;48.810;9.012;2023-08-20T02:49:00;97541.00;;;21.30
8227;BMP180;4154;48.810;9.012;2023-08-20T02:51:26;97550.00;;;21.20
8227;BMP180;4154;48.810;9.012;2023-08-20T02:53:52;97530.00;;;21.20
8227;BMP180;4154;48.810;9.012;2023-08-20T02:56:18;97533.00;;;21.20
8227;BMP180;4154;48.810;9.012;2023-08-20T02:58:43;97534.00;;;21.20
8227;BMP180;4154;48.810;9.012;2023-08-20T03:01:23;97538.00;;;21.20
8227;BMP180;4154;48.810;9.012;2023-08-20T03:03:49;97531.00;;;21.10
8227;BMP180;4154;48.810;9.012;2023-08-20T03:06:15;97533.00;;;21.10
8227;BMP180;4154;48.810;9.012;2023-08-20T03:08:42;97535.00;;;21.10
8227;BMP180;4154;48.810;9.012;2023-08-20T03:11:08;97529.00;;;21.10
8227;BMP180;4154;48.810;9.012;2023-08-20T03:13:33;97529.00;;;21.00
8227;BMP180;4154;48.810;9.012;2023-08-20T03:15:59;97531.00;;;21.00
8227;BMP180;4154;48.810;9.012;2023-08-20T03:18:26;97538.00;;;21.00
8227;BMP180;4154;48.810;9.012;2023-08-20T03:20:53;97526.00;;;21.00
8227;BMP180;4154;48.810;9.012;2023-08-20T03:23:19;97527.00;;;21.00
8227;BMP180;4154;48.810;9.012;2023-08-20T03:25:45;97525.00;;;20.90
8227;BMP180;4154;48.810;9.012;2023-08-20T03:28:12;97521.00;;;20.90
8227;BMP180;4154;48.810;9.012;2023-08-20T03:30:38;97524.00;;;20.90
8227;BMP180;4154;48.810;9.012;2023-08-20T03:33:04;97524.00;;;20.90
8227;BMP180;4154;48.810;9.012;2023-08-20T03:35:30;97527.00;;;20.90
8227;BMP180;4154;48.810;9.012;2023-08-20T03:37:56;97523.00;;;20.90
8227;BMP180;4154;48.810;9.012;2023-08-20T03:40:22;97518.00;;;20.80
8227;BMP180;4154;48.810;9.012;2023-08-20T03:42:48;97529.00;;;20.80
8227;BMP180;4154;48.810;9.012;2023-08-20T03:45:14;97524.00;;;20.80
8227;BMP180;4154;48.810;9.012;2023-08-20T03:47:40;97521.00;;;20.80
8227;BMP180;4154;48.810;9.012;2023-08-20T03:50:10;97521.00;;;20.80
8227;BMP180;4154;48.810;9.012;2023-08-20T03:52:36;97516.00;;;20.80
8227;BMP180;4154;48.810;9.012;2023-08-20T03:55:02;97523.00;;;20.80
8227;BMP180;4154;48.810;9.012;2023-08-20T03:57:28;97527.00;;;20.70
8227;BMP180;4154;48.810;9.012;2023-08-20T03:59:54;97527.00;;;20.70
8227;BMP180;4154;48.810;9.012;2023-08-20T04:02:23;97531.00;;;20.70
8227;BMP180;4154;48.810;9.012;2023-08-20T04:04:49;97527.00;;;20.70
8227;BMP180;4154;48.810;9.012;2023-08-20T04:07:15;97530.00;;;20.70
8227;BMP180;4154;48.810;9.012;2023-08-20T04:09:40;97527.00;;;20.70
8227;BMP180;4154;48.810;9.012;2023-08-20T04:12:08;97536.00;;;20.70
8227;BMP180;4154;48.810;9.012;2023-08-20T04:14:34;97535.00;;;20.60
8227;BMP180;4154;48.810;9.012;2023-08-20T04:17:00;97535.00;;;20.60
8227;BMP180;4154;48.810;9.012;2023-08-20T04:19:26;97537.00;;;20.60
8227;BMP180;4154;48.810;9.012;2023-08-20T04:21:52;97535.00;;;20.60
8227;BMP180;4154;48.810;9.012;2023-08-20T04:24:17;97533.00;;;20.60
8227;BMP180;4154;48.810;9.012;2023-08-20T04:26:43;97532.00;;;20.60
8227;BMP180;4154;48.810;9.012;2023-08-20T04:29:09;97534.00;;;20.60
8227;BMP180;4154;48.810;9.012;2023-08-20T04:31:35;97546.00;;;20.60
8227;BMP180;4154;48.810;9.012;2023-08-20T04:34:01;97542.00;;;20.60
8227;BMP180;4154;48.810;9.012;2023-08-20T04:36:27;97552.00;;;20.60
8227;BMP180;4154;48.810;9.012;2023-08-20T04:38:53;97557.00;;;20.60
8227;BMP180;4154;48.810;9.012;2023-08-20T04:41:18;97553.00;;;20.60
8227;BMP180;4154;48.810;9.012;2023-08-20T04:43:44;97566.00;;;20.60
8227;BMP180;4154;48.810;9.012;2023-08-20T04:46:10;97561.00;;;20.60
8227;BMP180;4154;48.810;9.012;2023-08-20T04:48:36;97561.00;;;20.60
8227;BMP180;4154;48.810;9.012;2023-08-20T04:51:02;97567.00;;;20.50
8227;BMP180;4154;48.810;9.012;2023-08-20T04:53:29;97564.00;;;20.50
8227;BMP180;4154;48.810;9.012;2023-08-20T04:55:56;97569.00;;;20.50
8227;BMP180;4154;48.810;9.012;2023-08-20T04:58:22;97572.00;;;20.50
8227;BMP180;4154;48.810;9.012;2023-08-20T05:00:48;97567.00;;;20.50
8227;BMP180;4154;48.810;9.012;2023-08-20T05:03:14;97558.00;;;20.50
8227;BMP180;4154;48.810;9.012;2023-08-20T05:05:40;97541.00;;;20.50
8227;BMP180;4154;48.810;9.012;2023-08-20T05:08:06;97533.00;;;20.50
8227;BMP180;4154;48.810;9.012;2023-08-20T05:10:36;97545.00;;;20.50
8227;BMP180;4154;48.810;9.012;2023-08-20T05:13:02;97560.00;;;20.50
8227;BMP180;4154;48.810;9.012;2023-08-20T05:15:28;97561.00;;;20.50
8227;BMP180;4154;48.810;9.012;2023-08-20T05:17:54;97566.00;;;20.50
8227;BMP180;4154;48.810;9.012;2023-08-20T05:20:20;97555.00;;;20.50
8227;BMP180;4154;48.810;9.012;2023-08-20T05:22:46;97557.00;;;20.50
8227;BMP180;4154;48.810;9.012;2023-08-20T05:25:12;97557.00;;;20.60
8227;BMP180;4154;48.810;9.012;2023-08-20T05:27:37;97550.00;;;20.50
8227;BMP180;4154;48.810;9.012;2023-08-20T05:30:03;97558.00;;;20.60
8227;BMP180;4154;48.810;9.012;2023-08-20T05:32:29;97570.00;;;20.60
8227;BMP180;4154;48.810;9.012;2023-08-20T05:34:56;97576.00;;;20.60
8227;BMP180;4154;48.810;9.012;2023-08-20T05:37:21;97579.00;;;20.60
8227;BMP180;4154;48.810;9.012;2023-08-20T05:39:47;97581.00;;;20.60
8227;BMP180;4154;48.810;9.012;2023-08-20T05:42:12;97577.00;;;20.70
8227;BMP180;4154;48.810;9.012;2023-08-20T05:44:38;97581.00;;;20.70
8227;BMP180;4154;48.810;9.012;2023-08-20T05:47:04;97570.00;;;20.70
8227;BMP180;4154;48.810;9.012;2023-08-20T05:49:31;97574.00;;;20.70
8227;BMP180;4154;48.810;9.012;2023-08-20T05:51:57;97575.00;;;20.80
8227;BMP180;4154;48.810;9.012;2023-08-20T05:54:23;97579.00;;;20.80
8227;BMP180;4154;48.810;9.012;2023-08-20T05:56:49;97582.00;;;20.90
8227;BMP180;4154;48.810;9.012;2023-08-20T05:59:15;97587.00;;;21.00
8227;BMP180;4154;48.810;9.012;2023-08-20T06:01:41;97599.00;;;21.00
8227;BMP180;4154;48.810;9.012;2023-08-20T06:04:08;97601.00;;;21.00
8227;BMP180;4154;48.810;9.012;2023-08-20T06:06:35;97593.00;;;21.10
8227;BMP180;4154;48.810;9.012;2023-08-20T06:09:01;97600.00;;;21.10
8227;BMP180;4154;48.810;9.012;2023-08-20T06:11:26;97600.00;;;21.20
8227;BMP180;4154;48.810;9.012;2023-08-20T06:13:52;97608.00;;;21.20
8227;BMP180;4154;48.810;9.012;2023-08-20T06:16:18;97606.00;;;21.30
8227;BMP180;4154;48.810;9.012;2023-08-20T06:18:44;97607.00;;;21.30
8227;BMP180;4154;48.810;9.012;2023-08-20T06:21:10;97603.00;;;21.30
8227;BMP180;4154;48.810;9.012;2023-08-20T06:23:35;97599.00;;;21.40
8227;BMP180;4154;48.810;9.012;2023-08-20T06:26:01;97604.00;;;21.40
8227;BMP180;4154;48.810;9.012;2023-08-20T06:28:26;97616.00;;;21.50
8227;BMP180;4154;48.810;9.012;2023-08-20T06:30:52;97620.00;;;21.50
8227;BMP180;4154;48.810;9.012;2023-08-20T06:33:18;97613.00;;;21.60
8227;BMP180;4154;48.810;9.012;2023-08-20T06:35:44;97600.00;;;21.60
8227;BMP180;4154;48.810;9.012;2023-08-20T06:38:10;97609.00;;;21.70
8227;BMP180;4154;48.810;9.012;2023-08-20T06:40:35;97610.00;;;21.80
8227;BMP180;4154;48.810;9.012;2023-08-20T06:43:01;97610.00;;;21.90
8227;BMP180;4154;48.810;9.012;2023-08-20T06:45:27;97609.00;;;21.90
8227;BMP180;4154;48.810;9.012;2023-08-20T06:47:53;97616.00;;;22.00
8227;BMP180;4154;48.810;9.012;2023-08-20T06:50:18;97606.00;;;22.10
8227;BMP180;4154;48.810;9.012;2023-08-20T06:52:44;97617.00;;;22.10
8227;BMP180;4154;48.810;9.012;2023-08-20T06:55:10;97613.00;;;22.20
8227;BMP180;4154;48.810;9.012;2023-08-20T06:57:36;97622.00;;;22.20
8227;BMP180;4154;48.810;9.012;2023-08-20T07:00:02;97626.00;;;22.20
8227;BMP180;4154;48.810;9.012;2023-08-20T07:02:30;97613.00;;;22.20
8227;BMP180;4154;48.810;9.012;2023-08-20T07:04:56;97616.00;;;22.20
8227;BMP180;4154;48.810;9.012;2023-08-20T07:07:21;97614.00;;;22.30
8227;BMP180;4154;48.810;9.012;2023-08-20T07:09:47;97616.00;;;22.30
8227;BMP180;4154;48.810;9.012;2023-08-20T07:12:13;97624.00;;;22.30
8227;BMP180;4154;48.810;9.012;2023-08-20T07:14:38;97630.00;;;22.30
8227;BMP180;4154;48.810;9.012;2023-08-20T07:17:04;97631.00;;;22.40
8227;BMP180;4154;48.810;9.012;2023-08-20T07:19:31;97637.00;;;22.40
8227;BMP180;4154;48.810;9.012;2023-08-20T07:21:57;97635.00;;;22.40
8227;BMP180;4154;48.810;9.012;2023-08-20T07:24:22;97636.00;;;22.40
8227;BMP180;4154;48.810;9.012;2023-08-20T07:26:51;97632.00;;;22.50
8227;BMP180;4154;48.810;9.012;2023-08-20T07:29:17;97642.00;;;22.60
8227;BMP180;4154;48.810;9.012;2023-08-20T07:31:43;97643.00;;;22.60
8227;BMP180;4154;48.810;9.012;2023-08-20T07:34:09;97645.00;;;22.70
8227;BMP180;4154;48.810;9.012;2023-08-20T07:36:35;97649.00;;;22.70
8227;BMP180;4154;48.810;9.012;2023-08-20T07:39:01;97650.00;;;22.80
8227;BMP180;4154;48.810;9.012;2023-08-20T07:41:27;97659.00;;;22.80
8227;BMP180;4154;48.810;9.012;2023-08-20T07:43:52;97654.00;;;22.80
8227;BMP180;4154;48.810;9.012;2023-08-20T07:46:19;97657.00;;;22.90
8227;BMP180;4154;48.810;9.012;2023-08-20T07:48:45;97653.00;;;23.00
8227;BMP180;4154;48.810;9.012;2023-08-20T07:51:11;97647.00;;;23.00
8227;BMP180;4154;48.810;9.012;2023-08-20T07:53:37;97645.00;;;23.10
8227;BMP180;4154;48.810;9.012;2023-08-20T07:56:03;97650.00;;;23.20
8227;BMP180;4154;48.810;9.012;2023-08-20T07:58:29;97659.00;;;23.30
8227;BMP180;4154;48.810;9.012;2023-08-20T08:00:55;97662.00;;;23.30
8227;BMP180;4154;48.810;9.012;2023-08-20T08:03:21;97658.00;;;23.40
8227;BMP180;4154;48.810;9.012;2023-08-20T08:05:50;97657.00;;;23.50
8227;BMP180;4154;48.810;9.012;2023-08-20T08:08:17;97659.00;;;23.60
8227;BMP180;4154;48.810;9.012;2023-08-20T08:10:44;97658.00;;;23.60
8227;BMP180;4154;48.810;9.012;2023-08-20T08:13:12;97658.00;;;23.60
8227;BMP180;4154;48.810;9.012;2023-08-20T08:15:38;97670.00;;;23.70
8227;BMP180;4154;48.810;9.012;2023-08-20T08:18:04;97662.00;;;23.70
8227;BMP180;4154;48.810;9.012;2023-08-20T08:20:30;97665.00;;;23.80
8227;BMP180;4154;48.810;9.012;2023-08-20T08:22:56;97662.00;;;23.90
8227;BMP180;4154;48.810;9.012;2023-08-20T08:25:22;97647.00;;;24.00
8227;BMP180;4154;48.810;9.012;2023-08-20T08:27:48;97666.00;;;24.00
8227;BMP180;4154;48.810;9.012;2023-08-20T08:30:14;97659.00;;;24.00
8227;BMP180;4154;48.810;9.012;2023-08-20T08:32:41;97669.00;;;24.10
8227;BMP180;4154;48.810;9.012;2023-08-20T08:35:07;97661.00;;;24.20
8227;BMP180;4154;48.810;9.012;2023-08-20T08:37:33;97660.00;;;24.20
8227;BMP180;4154;48.810;9.012;2023-08-20T08:39:59;97661.00;;;24.30
8227;BMP180;4154;48.810;9.012;2023-08-20T08:42:25;97655.00;;;24.30
8227;BMP180;4154;48.810;9.012;2023-08-20T08:44:52;97667.00;;;24.30
8227;BMP180;4154;48.810;9.012;2023-08-20T08:47:22;97664.00;;;24.30
8227;BMP180;4154;48.810;9.012;2023-08-20T08:49:49;97669.00;;;24.30
8227;BMP180;4154;48.810;9.012;2023-08-20T08:52:16;97659.00;;;24.40
8227;BMP180;4154;48.810;9.012;2023-08-20T08:54:42;97671.00;;;24.40
8227;BMP180;4154;48.810;9.012;2023-08-20T08:57:08;97674.00;;;24.60
8227;BMP180;4154;48.810;9.012;2023-08-20T08:59:34;97675.00;;;24.80
8227;BMP180;4154;48.810;9.012;2023-08-20T09:02:00;97672.00;;;24.80
8227;BMP180;4154;48.810;9.012;2023-08-20T09:04:26;97671.00;;;24.80
8227;BMP180;4154;48.810;9.012;2023-08-20T09:06:55;97679.00;;;24.90
8227;BMP180;4154;48.810;9.012;2023-08-20T09:09:21;97673.00;;;24.90
8227;BMP180;4154;48.810;9.012;2023-08-20T09:11:48;97674.00;;;25.00
8227;BMP180;4154;48.810;9.012;2023-08-20T09:16:55;97670.00;;;25.10
8227;BMP180;4154;48.810;9.012;2023-08-20T09:19:21;97671.00;;;25.10
8227;BMP180;4154;48.810;9.012;2023-08-20T09:21:47;97665.00;;;25.30
8227;BMP180;4154;48.810;9.012;2023-08-20T09:24:14;97660.00;;;25.40
8227;BMP180;4154;48.810;9.012;2023-08-20T09:26:45;97665.00;;;25.50
8227;BMP180;4154;48.810;9.012;2023-08-20T09:29:11;97674.00;;;25.50
8227;BMP180;4154;48.810;9.012;2023-08-20T09:31:39;97674.00;;;25.50
8227;BMP180;4154;48.810;9.012;2023-08-20T09:34:05;97678.00;;;25.40
8227;BMP180;4154;48.810;9.012;2023-08-20T09:36:34;97672.00;;;25.50
8227;BMP180;4154;48.810;9.012;2023-08-20T09:39:04;97674.00;;;25.60
8227;BMP180;4154;48.810;9.012;2023-08-20T09:41:30;97672.00;;;25.60
8227;BMP180;4154;48.810;9.012;2023-08-20T09:43:59;97667.00;;;25.60
8227;BMP180;4154;48.810;9.012;2023-08-20T09:46:27;97672.00;;;25.70
8227;BMP180;4154;48.810;9.012;2023-08-20T09:48:56;97672.00;;;25.70
8227;BMP180;4154;48.810;9.012;2023-08-20T09:51:27;97672.00;;;25.80
8227;BMP180;4154;48.810;9.012;2023-08-20T09:56:58;97674.00;;;26.00
8227;BMP180;4154;48.810;9.012;2023-08-20T09:59:27;97670.00;;;26.00
8227;BMP180;4154;48.810;9.012;2023-08-20T10:01:54;97663.00;;;26.00
8227;BMP180;4154;48.810;9.012;2023-08-20T10:04:21;97672.00;;;26.10
8227;BMP180;4154;48.810;9.012;2023-08-20T10:06:49;97666.00;;;26.10
8227;BMP180;4154;48.810;9.012;2023-08-20T10:09:15;97667.00;;;26.20
8227;BMP180;4154;48.810;9.012;2023-08-20T10:11:42;97670.00;;;26.20
8227;BMP180;4154;48.810;9.012;2023-08-20T10:14:08;97660.00;;;26.20
8227;BMP180;4154;48.810;9.012;2023-08-20T10:16:35;97665.00;;;26.30
8227;BMP180;4154;48.810;9.012;2023-08-20T10:19:05;97667.00;;;26.40
8227;BMP180;4154;48.810;9.012;2023-08-20T10:21:32;97668.00;;;26.50
8227;BMP180;4154;48.810;9.012;2023-08-20T10:24:05;97667.00;;;26.50
8227;BMP180;4154;48.810;9.012;2023-08-20T10:26:34;97670.00;;;26.50
8227;BMP180;4154;48.810;9.012;2023-08-20T10:29:39;97674.00;;;26.80
8227;BMP180;4154;48.810;9.012;2023-08-20T10:32:12;97671.00;;;26.80
8227;BMP180;4154;48.810;9.012;2023-08-20T10:34:44;97677.00;;;26.80
8227;BMP180;4154;48.810;9.012;2023-08-20T10:37:15;97667.00;;;26.80
8227;BMP180;4154;48.810;9.012;2023-08-20T10:39:41;97673.00;;;26.90
8227;BMP180;4154;48.810;9.012;2023-08-20T10:45:07;97674.00;;;27.00
8227;BMP180;4154;48.810;9.012;2023-08-20T10:47:47;97675.00;;;27.20
8227;BMP180;4154;48.810;9.012;2023-08-20T10:50:19;97673.00;;;27.20
8227;BMP180;4154;48.810;9.012;2023-08-20T10:52:50;97672.00;;;27.30
8227;BMP180;4154;48.810;9.012;2023-08-20T10:55:23;97672.00;;;27.30
8227;BMP180;4154;48.810;9.012;2023-08-20T10:57:56;97666.00;;;27.30
8227;BMP180;4154;48.810;9.012;2023-08-20T11:00:22;97664.00;;;27.30
8227;BMP180;4154;48.810;9.012;2023-08-20T11:02:50;97668.00;;;27.50
8227;BMP180;4154;48.810;9.012;2023-08-20T11:05:20;97666.00;;;27.60
8227;BMP180;4154;48.810;9.012;2023-08-20T11:07:50;97664.00;;;27.60
8227;BMP180;4154;48.810;9.012;2023-08-20T11:10:17;97657.00;;;27.70
8227;BMP180;4154;48.810;9.012;2023-08-20T11:12:45;97654.00;;;27.80
8227;BMP180;4154;48.810;9.012;2023-08-20T11:15:12;97657.00;;;27.80
8227;BMP180;4154;48.810;9.012;2023-08-20T11:17:56;97652.00;;;27.80
8227;BMP180;4154;48.810;9.012;2023-08-20T11:20:23;97649.00;;;27.80
8227;BMP180;4154;48.810;9.012;2023-08-20T11:22:49;97652.00;;;27.80
8227;BMP180;4154;48.810;9.012;2023-08-20T11:25:15;97664.00;;;27.80
8227;BMP180;4154;48.810;9.012;2023-08-20T11:27:42;97663.00;;;28.00
8227;BMP180;4154;48.810;9.012;2023-08-20T11:30:10;97661.00;;;28.10
8227;BMP180;4154;48.810;9.012;2023-08-20T11:32:39;97666.00;;;28.10
8227;BMP180;4154;48.810;9.012;2023-08-20T11:35:07;97652.00;;;28.20
8227;BMP180;4154;48.810;9.012;2023-08-20T11:37:33;97651.00;;;28.20
8227;BMP180;4154;48.810;9.012;2023-08-20T11:39:59;97658.00;;;28.30
8227;BMP180;4154;48.810;9.012;2023-08-20T11:42:25;97651.00;;;28.20
8227;BMP180;4154;48.810;9.012;2023-08-20T11:44:55;97653.00;;;28.30
8227;BMP180;4154;48.810;9.012;2023-08-20T11:47:21;97656.00;;;28.50
8227;BMP180;4154;48.810;9.012;2023-08-20T11:49:47;97659.00;;;28.40
8227;BMP180;4154;48.810;9.012;2023-08-20T11:52:12;97657.00;;;28.40
8227;BMP180;4154;48.810;9.012;2023-08-20T11:54:38;97652.00;;;28.60
8227;BMP180;4154;48.810;9.012;2023-08-20T11:57:06;97649.00;;;28.80
8227;BMP180;4154;48.810;9.012;2023-08-20T11:59:33;97650.00;;;28.80
8227;BMP180;4154;48.810;9.012;2023-08-20T12:02:01;97647.00;;;28.90
8227;BMP180;4154;48.810;9.012;2023-08-20T12:04:29;97644.00;;;28.80
8227;BMP180;4154;48.810;9.012;2023-08-20T12:07:14;97643.00;;;28.70
8227;BMP180;4154;48.810;9.012;2023-08-20T12:09:41;97644.00;;;28.70
8227;BMP180;4154;48.810;9.012;2023-08-20T12:12:08;97638.00;;;28.80
8227;BMP180;4154;48.810;9.012;2023-08-20T12:14:35;97636.00;;;28.90
8227;BMP180;4154;48.810;9.012;2023-08-20T12:17:01;97643.00;;;29.00
8227;BMP180;4154;48.810;9.012;2023-08-20T12:19:28;97637.00;;;29.10
8227;BMP180;4154;48.810;9.012;2023-08-20T12:21:54;97637.00;;;29.10
8227;BMP180;4154;48.810;9.012;2023-08-20T12:24:20;97643.00;;;29.30
8227;BMP180;4154;48.810;9.012;2023-08-20T12:26:46;97639.00;;;29.30
8227;BMP180;4154;48.810;9.012;2023-08-20T12:29:12;97639.00;;;29.40
8227;BMP180;4154;48.810;9.012;2023-08-20T12:31:38;97634.00;;;29.40
8227;BMP180;4154;48.810;9.012;2023-08-20T12:34:03;97633.00;;;29.40
8227;BMP180;4154;48.810;9.012;2023-08-20T12:36:30;97624.00;;;29.50
8227;BMP180;4154;48.810;9.012;2023-08-20T12:38:55;97625.00;;;29.40
8227;BMP180;4154;48.810;9.012;2023-08-20T12:41:22;97622.00;;;29.40
8227;BMP180;4154;48.810;9.012;2023-08-20T12:43:48;97631.00;;;29.50
8227;BMP180;4154;48.810;9.012;2023-08-20T12:46:13;97619.00;;;29.50
8227;BMP180;4154;48.810;9.012;2023-08-20T12:48:40;97627.00;;;29.50
8227;BMP180;4154;48.810;9.012;2023-08-20T12:51:06;97624.00;;;29.50
8227;BMP180;4154;48.810;9.012;2023-08-20T12:53:32;97623.00;;;29.70
8227;BMP180;4154;48.810;9.012;2023-08-20T12:55:58;97617.00;;;29.60
8227;BMP180;4154;48.810;9.012;2023-08-20T12:58:24;97613.00;;;29.60
8227;BMP180;4154;48.810;9.012;2023-08-20T13:00:50;97613.00;;;29.60
8227;BMP180;4154;48.810;9.012;2023-08-20T13:03:19;97609.00;;;29.60
8227;BMP180;4154;48.810;9.012;2023-08-20T13:05:45;97620.00;;;29.70
8227;BMP180;4154;48.810;9.012;2023-08-20T13:08:11;97607.00;;;29.70
8227;BMP180;4154;48.810;9.012;2023-08-20T13:10:41;97612.00;;;29.70
8227;BMP180;4154;48.810;9.012;2023-08-20T13:13:12;97613.00;;;29.80
8227;BMP180;4154;48.810;9.012;2023-08-20T13:15:38;97610.00;;;29.90
8227;BMP180;4154;48.810;9.012;2023-08-20T13:18:04;97605.00;;;29.90
8227;BMP180;4154;48.810;9.012;2023-08-20T13:20:30;97601.00;;;29.80
8227;BMP180;4154;48.810;9.012;2023-08-20T13:22:56;97602.00;;;30.00
8227;BMP180;4154;48.810;9.012;2023-08-20T13:25:22;97612.00;;;29.90
8227;BMP180;4154;48.810;9.012;2023-08-20T13:27:49;97602.00;;;29.90
8227;BMP180;4154;48.810;9.012;2023-08-20T13:30:15;97600.00;;;29.90
8227;BMP180;4154;48.810;9.012;2023-08-20T13:32:41;97604.00;;;30.00
8227;BMP180;4154;48.810;9.012;2023-08-20T13:35:07;97600.00;;;30.10
8227;BMP180;4154;48.810;9.012;2023-08-20T13:37:36;97596.00;;;30.00
8227;BMP180;4154;48.810;9.012;2023-08-20T13:40:02;97604.00;;;30.10
8227;BMP180;4154;48.810;9.012;2023-08-20T13:42:29;97597.00;;;30.20
8227;BMP180;4154;48.810;9.012;2023-08-20T13:44:55;97601.00;;;30.20
8227;BMP180;4154;48.810;9.012;2023-08-20T13:47:20;97606.00;;;30.20
8227;BMP180;4154;48.810;9.012;2023-08-20T13:49:46;97598.00;;;30.20
8227;BMP180;4154;48.810;9.012;2023-08-20T13:52:12;97605.00;;;30.20
8227;BMP180;4154;48.810;9.012;2023-08-20T13:54:38;97601.00;;;30.30
8227;BMP180;4154;48.810;9.012;2023-08-20T13:57:04;97589.00;;;30.20
8227;BMP180;4154;48.810;9.012;2023-08-20T13:59:31;97594.00;;;30.30
8227;BMP180;4154;48.810;9.012;2023-08-20T14:01:56;97599.00;;;30.20
8227;BMP180;4154;48.810;9.012;2023-08-20T14:04:22;97587.00;;;30.20
8227;BMP180;4154;48.810;9.012;2023-08-20T14:06:48;97589.00;;;30.10
8227;BMP180;4154;48.810;9.012;2023-08-20T14:09:14;97581.00;;;30.30
8227;BMP180;4154;48.810;9.012;2023-08-20T14:11:39;97585.00;;;30.30
8227;BMP180;4154;48.810;9.012;2023-08-20T14:14:05;97581.00;;;30.40
8227;BMP180;4154;48.810;9.012;2023-08-20T14:16:31;97570.00;;;30.40
8227;BMP180;4154;48.810;9.012;2023-08-20T14:18:57;97574.00;;;30.50
8227;BMP180;4154;48.810;9.012;2023-08-20T14:21:23;97576.00;;;30.50
8227;BMP180;4154;48.810;9.012;2023-08-20T14:23:48;97576.00;;;30.40
8227;BMP180;4154;48.810;9.012;2023-08-20T14:26:14;97585.00;;;30.40
8227;BMP180;4154;48.810;9.012;2023-08-20T14:28:41;97585.00;;;30.50
8227;BMP180;4154;48.810;9.012;2023-08-20T14:31:09;97585.00;;;30.50
8227;BMP180;4154;48.810;9.012;2023-08-20T14:33:35;97587.00;;;30.40
8227;BMP180;4154;48.810;9.012;2023-08-20T14:36:01;97587.00;;;30.50
8227;BMP180;4154;48.810;9.012;2023-08-20T14:38:30;97578.00;;;30.40
8227;BMP180;4154;48.810;9.012;2023-08-20T14:41:00;97577.00;;;30.40
8227;BMP180;4154;48.810;9.012;2023-08-20T14:43:27;97581.00;;;30.10